Time;durP1;ratioP1;P1;durP2;ratioP2;P2;SDS_P1;SDS_P2;PMS_P1;PMS_P2;Temp;Humidity;BMP_temperature;BMP_pressure;BME280_temperature;BME280_humidity;BME280_pressure;Samples;Min_cycle;Max_cycle;Signal;HPM_P1;HPM_P2
2021/03/06 00:01:06;;;;;;;27.98;17.55;;;;;;;1.26;73.06;101614.55;2916422;81;21169;-64
2021/03/06 00:05:11;;;;;;;34.95;21.70;;;;;;;1.22;73.18;101620.75;2916625;81;21173;-64
2021/03/06 00:09:36;;;;;;;31.42;20.00;;;;;;;1.16;73.30;101622.64;2916451;81;21152;-65
2021/03/06 00:13:39;;;;;;;27.30;16.57;;;;;;;1.13;73.33;101624.43;2917998;81;21164;-64
2021/03/06 00:17:43;;;;;;;26.55;17.40;;;;;;;1.15;73.40;101624.38;2918133;81;21137;-66
2021/03/06 00:21:47;;;;;;;29.10;17.62;;;;;;;1.16;73.39;101627.41;2890509;81;21650;-66
2021/03/06 00:25:52;;;;;;;24.02;15.50;;;;;;;1.18;73.36;101630.90;2918168;81;21180;-65
2021/03/06 00:29:55;;;;;;;39.53;22.50;;;;;;;1.11;73.27;101634.09;2890957;81;21458;-64
2021/03/06 00:33:58;;;;;;;34.23;17.00;;;;;;;1.11;73.27;101634.09;2918435;81;21156;-63
2021/03/06 00:38:01;;;;;;;28.07;18.23;;;;;;;1.06;73.26;101628.05;2918374;81;21148;-65
2021/03/06 00:42:06;;;;;;;36.93;20.85;;;;;;;0.96;73.60;101631.31;2897824;81;21172;-66
2021/03/06 00:46:09;;;;;;;34.83;20.00;;;;;;;0.89;73.91;101628.87;2848762;83;21587;-64
2021/03/06 00:50:17;;;;;;;35.48;17.52;;;;;;;0.89;74.05;101629.72;2826148;84;21175;-64
2021/03/06 00:54:22;;;;;;;33.42;20.05;;;;;;;0.92;74.05;101628.34;2825767;84;21605;-63
2021/03/06 00:58:25;;;;;;;23.73;16.70;;;;;;;0.95;74.08;101625.66;2848599;82;21179;-63
2021/03/06 01:02:29;;;;;;;21.30;15.08;;;;;;;0.95;73.93;101617.79;2848420;83;21175;-63
2021/03/06 01:06:33;;;;;;;33.63;20.43;;;;;;;0.96;73.92;101618.67;2848464;83;21625;-63
2021/03/06 01:10:41;;;;;;;25.70;15.95;;;;;;;0.98;73.73;101624.73;2853928;82;21849;-62
2021/03/06 01:14:44;;;;;;;28.92;16.67;;;;;;;1.01;73.62;101618.59;2875123;82;21135;-62
2021/03/06 01:18:50;;;;;;;;;;;;;;;1.00;73.47;101609.84;2877507;82;21588;-62
2021/03/06 01:22:54;;;;;;;27.75;15.45;;;;;;;1.02;73.51;101605.43;2874681;82;20210;-64
2021/03/06 01:26:57;;;;;;;26.95;14.95;;;;;;;1.02;73.54;101611.14;2874463;82;21210;-65
2021/03/06 01:31:00;;;;;;;24.00;15.45;;;;;;;1.05;73.14;101609.30;2874886;82;21169;-64
2021/03/06 01:35:12;;;;;;;30.55;16.57;;;;;;;1.06;73.21;101605.78;2874897;82;21193;-64
2021/03/06 01:39:16;;;;;;;28.50;15.35;;;;;;;1.11;73.08;101597.83;2874906;82;21134;-63
2021/03/06 01:43:19;;;;;;;30.05;15.72;;;;;;;1.15;72.85;101592.92;2874967;82;21640;-62
2021/03/06 01:47:22;;;;;;;24.00;14.75;;;;;;;0.96;72.77;101556.63;2874820;82;21177;-64
2021/03/06 01:51:26;;;;;;;23.60;15.80;;;;;;;1.15;72.79;101591.61;2874867;82;21170;-65
2021/03/06 01:55:33;;;;;;;24.52;16.80;;;;;;;1.15;72.88;101587.69;2874740;82;21174;-63
2021/03/06 01:59:36;;;;;;;26.27;16.10;;;;;;;1.13;72.73;101586.86;2875210;82;21126;-63
2021/03/06 02:03:39;;;;;;;21.68;13.65;;;;;;;1.12;72.60;101585.14;2874977;82;21170;-63
2021/03/06 02:07:44;;;;;;;26.45;14.65;;;;;;;1.11;72.42;101588.66;2875227;82;21162;-62
2021/03/06 02:11:55;;;;;;;31.25;16.57;;;;;;;1.11;72.29;101588.22;2863594;82;21155;-62
2021/03/06 02:16:19;;;;;;;23.83;14.23;;;;;;;1.14;72.17;101595.13;2848304;83;21179;-64
2021/03/06 02:20:37;;;;;;;26.62;15.75;;;;;;;1.16;72.09;101602.52;2848607;82;21155;-64
2021/03/06 02:25:25;;;;;;;25.05;15.75;;;;;;;1.14;71.96;101603.88;2848293;83;21171;-64
2021/03/06 02:29:40;;;;;;;25.23;15.58;;;;;;;1.19;72.00;101594.61;2848166;83;21185;-64
2021/03/06 02:33:57;;;;;;;20.77;11.70;;;;;;;1.20;71.85;101593.72;2818327;83;21165;-62
2021/03/06 02:38:09;;;;;;;21.60;14.15;;;;;;;1.21;71.67;101597.18;2800690;85;21148;-64
2021/03/06 02:42:17;;;;;;;23.05;14.05;;;;;;;1.08;71.74;101594.84;2826254;84;21158;-62
2021/03/06 02:46:24;;;;;;;15.32;12.35;;;;;;;1.08;71.74;101594.84;2826481;84;21227;-64
2021/03/06 02:50:28;;;;;;;14.80;11.90;;;;;;;1.07;71.74;101594.86;2826453;84;21226;-62
2021/03/06 02:54:31;;;;;;;19.25;15.15;;;;;;;0.96;71.78;101594.62;2826134;84;21644;-62
2021/03/06 02:59:00;;;;;;;20.65;12.90;;;;;;;0.84;71.78;101592.27;2848084;82;21171;-62
2021/03/06 03:03:51;;;;;;;23.85;14.30;;;;;;;0.76;72.41;101598.97;2847256;83;21115;-62
2021/03/06 03:08:20;;;;;;;22.93;12.13;;;;;;;0.69;72.51;101600.84;2847958;82;21187;-64
2021/03/06 03:12:25;;;;;;;19.35;11.08;;;;;;;0.56;72.69;101603.27;2848567;82;21152;-62
2021/03/06 03:16:42;;;;;;;14.30;11.38;;;;;;;0.44;73.03;101606.14;2848530;83;21165;-63
2021/03/06 03:20:54;;;;;;;23.25;12.43;;;;;;;0.40;73.57;101614.05;2839832;83;21153;-64
2021/03/06 03:25:01;;;;;;;18.00;11.43;;;;;;;0.39;73.72;101610.14;2848737;82;21188;-65
2021/03/06 03:29:07;;;;;;;17.73;12.33;;;;;;;0.29;73.95;101592.42;2848456;82;21700;-63
2021/03/06 03:33:12;;;;;;;16.37;11.50;;;;;;;0.29;73.95;101592.42;2848943;83;21182;-63
2021/03/06 03:37:16;;;;;;;33.57;12.13;;;;;;;0.36;73.83;101612.35;2848807;83;21173;-63
2021/03/06 03:41:19;;;;;;;15.95;10.78;;;;;;;0.37;73.83;101612.77;2848436;83;21700;-64
2021/03/06 03:45:23;;;;;;;16.35;9.53;;;;;;;0.20;74.08;101597.84;2848937;83;21176;-64
2021/03/06 03:49:28;;;;;;;18.12;10.82;;;;;;;0.27;74.06;101623.00;2848443;82;21632;-64
2021/03/06 03:53:33;;;;;;;24.80;10.40;;;;;;;0.27;74.06;101623.00;2848602;82;21618;-63
2021/03/06 03:57:40;;;;;;;16.75;9.63;;;;;;;0.32;74.28;101623.78;2848564;82;21180;-64
2021/03/06 04:01:46;;;;;;;14.68;9.75;;;;;;;0.42;74.03;101628.41;2848619;83;21734;-63
2021/03/06 04:05:51;;;;;;;13.50;8.68;;;;;;;0.50;73.80;101623.03;2820093;83;21173;-62
2021/03/06 04:09:55;;;;;;;15.30;10.70;;;;;;;0.58;73.30;101631.59;2848413;82;21655;-62
2021/03/06 04:14:00;;;;;;;21.30;10.20;;;;;;;0.58;73.30;101631.59;2848140;82;21156;-63
2021/03/06 04:22:29;;;;;;;13.05;10.03;;;;;;;0.59;73.00;101637.28;2835557;83;21160;-66
2021/03/06 04:26:33;;;;;;;24.65;9.70;;;;;;;0.60;72.89;101636.39;2835669;83;21136;-65
2021/03/06 04:30:57;;;;;;;13.98;8.28;;;;;;;0.48;73.25;101619.58;2835250;83;21144;-66
2021/03/06 04:35:01;;;;;;;13.70;10.50;;;;;;;0.48;73.25;101619.58;2821924;84;21217;-66
2021/03/06 04:39:06;;;;;;;14.25;10.78;;;;;;;0.64;73.31;101639.36;2870350;82;21206;-67
2021/03/06 04:43:10;;;;;;;11.28;7.92;;;;;;;0.68;73.05;101638.41;2864087;82;21567;-66
2021/03/06 04:47:15;;;;;;;9.28;7.83;;;;;;;0.69;72.66;101636.20;2821319;82;21619;-64
2021/03/06 04:51:19;;;;;;;12.33;8.17;;;;;;;0.70;72.67;101641.86;2830012;83;21160;-65
2021/03/06 04:55:25;;;;;;;11.33;8.13;;;;;;;0.63;72.80;101645.50;2819555;84;21141;-65
2021/03/06 04:59:29;;;;;;;10.85;7.42;;;;;;;0.52;72.93;101648.74;2819405;84;21149;-65
2021/03/06 05:03:32;;;;;;;10.32;7.47;;;;;;;0.39;73.41;101645.48;2819381;84;21125;-63
2021/03/06 05:07:37;;;;;;;16.73;9.18;;;;;;;0.30;73.94;101650.42;2820019;82;21180;-64
2021/03/06 05:11:40;;;;;;;16.73;10.70;;;;;;;0.32;74.48;101647.33;2819324;82;21198;-65
2021/03/06 05:15:43;;;;;;;13.68;7.33;;;;;;;0.32;74.48;101647.33;2820961;82;21168;-64
2021/03/06 05:19:47;;;;;;;15.58;8.58;;;;;;;0.53;73.93;101648.73;2820579;82;21136;-65
2021/03/06 05:23:51;;;;;;;12.75;9.43;;;;;;;0.62;73.48;101649.01;2815295;82;21156;-64
2021/03/06 05:27:55;;;;;;;15.13;9.13;;;;;;;0.62;73.48;101649.01;2820473;82;21189;-65
2021/03/06 05:32:03;;;;;;;13.68;8.35;;;;;;;0.62;73.38;101643.77;2814991;82;21575;-66
2021/03/06 05:36:28;;;;;;;16.48;8.68;;;;;;;0.59;72.59;101640.33;2796847;84;21165;-66
2021/03/06 05:40:38;;;;;;;11.75;7.30;;;;;;;0.59;72.59;101640.33;2786423;85;21173;-66
2021/03/06 05:44:42;;;;;;;18.82;9.03;;;;;;;0.70;72.79;101654.95;2791194;84;21177;-64
2021/03/06 05:48:46;;;;;;;9.20;6.83;;;;;;;0.69;72.82;101661.09;2790956;84;21168;-64
2021/03/06 05:52:51;;;;;;;14.23;7.85;;;;;;;0.73;72.76;101660.59;2760758;85;21743;-66
2021/03/06 05:56:55;;;;;;;11.25;6.83;;;;;;;0.67;72.87;101630.13;2783307;84;21148;-66
2021/03/06 06:01:05;;;;;;;13.95;8.08;;;;;;;0.92;72.75;101671.57;2783039;85;21186;-65
2021/03/06 06:05:10;;;;;;;12.35;7.87;;;;;;;1.21;72.72;101670.15;2783892;84;21162;-67
2021/03/06 06:09:14;;;;;;;14.98;8.43;;;;;;;1.25;72.77;101661.32;2764634;85;21186;-65
2021/03/06 06:13:22;;;;;;;14.28;7.70;;;;;;;1.25;72.77;101661.32;2783628;84;21166;-66
2021/03/06 06:17:25;;;;;;;19.82;10.45;;;;;;;1.54;72.57;101687.36;2783696;85;21672;-65
2021/03/06 06:21:50;;;;;;;24.95;10.23;;;;;;;1.73;72.10;101699.22;2784335;84;21185;-66
2021/03/06 06:25:53;;;;;;;18.17;9.30;;;;;;;1.84;71.91;101692.84;2783285;85;21178;-66
2021/03/06 06:29:59;;;;;;;21.48;10.88;;;;;;;1.97;71.68;101695.19;2783589;84;21074;-65
2021/03/06 06:34:12;;;;;;;22.70;11.10;;;;;;;2.09;71.48;101701.91;2783787;85;21162;-68
2021/03/06 06:38:15;;;;;;;19.15;11.00;;;;;;;2.24;71.16;101712.49;2778725;84;21177;-69
2021/03/06 06:42:19;;;;;;;12.85;9.40;;;;;;;2.40;70.68;101718.22;2770774;85;21658;-67
2021/03/06 06:46:30;;;;;;;17.40;10.82;;;;;;;2.52;70.73;101717.05;2805205;83;21564;-67
2021/03/06 06:50:34;;;;;;;17.92;9.45;;;;;;;2.68;70.25;101722.80;2818096;83;21177;-66
2021/03/06 06:54:37;;;;;;;22.80;11.80;;;;;;;2.93;70.21;101729.56;2772483;84;21189;-66
2021/03/06 06:58:41;;;;;;;14.68;9.53;;;;;;;3.23;70.09;101736.22;2772298;85;21600;-68
2021/03/06 07:03:05;;;;;;;15.15;8.13;;;;;;;3.55;69.13;101737.09;2772690;85;21192;-64
2021/03/06 07:07:11;;;;;;;12.20;7.12;;;;;;;3.82;68.25;101737.16;2772608;85;21212;-65
2021/03/06 07:11:33;;;;;;;14.05;7.95;;;;;;;3.98;66.57;101738.02;2772592;85;21571;-65
2021/03/06 07:15:42;;;;;;;9.48;6.87;;;;;;;3.96;66.01;101746.42;2725410;87;21502;-65
2021/03/06 07:19:46;;;;;;;10.55;7.17;;;;;;;3.93;66.13;101744.73;2725604;87;21188;-68
2021/03/06 07:23:50;;;;;;;12.18;8.03;;;;;;;3.95;65.98;101741.59;2725549;87;21614;-67
2021/03/06 07:27:54;;;;;;;14.55;7.47;;;;;;;4.00;66.41;101744.94;2725400;87;21161;-67
2021/03/06 07:31:58;;;;;;;7.78;6.85;;;;;;;4.08;66.75;101740.75;2724783;87;21196;-65
2021/03/06 07:36:05;;;;;;;9.78;6.22;;;;;;;4.07;65.48;101728.97;2725138;87;21157;-67
2021/03/06 07:40:13;;;;;;;11.57;6.05;;;;;;;4.06;65.17;101735.99;2710033;86;21229;-66
2021/03/06 07:44:19;;;;;;;8.70;5.95;;;;;;;4.13;65.09;101737.55;2729115;85;21173;-65
2021/03/06 07:48:28;;;;;;;11.28;8.58;;;;;;;4.16;64.44;101737.04;2787585;85;22272;-65
2021/03/06 07:52:33;;;;;;;9.95;6.40;;;;;;;4.23;64.98;101740.75;2788064;85;21525;-64
2021/03/06 07:56:40;;;;;;;6.35;5.65;;;;;;;4.40;64.64;101744.59;2786922;85;21205;-63
2021/03/06 08:00:50;;;;;;;14.00;6.17;;;;;;;4.61;65.19;101746.98;2781623;84;21149;-66
2021/03/06 08:04:54;;;;;;;8.68;5.92;;;;;;;4.92;64.02;101748.59;2766509;86;21197;-68
2021/03/06 08:09:07;;;;;;;9.05;4.28;;;;;;;5.12;63.19;101749.67;2764748;85;21194;-66
2021/03/06 08:13:36;;;;;;;7.78;6.10;;;;;;;5.26;62.05;101747.84;2740403;86;21173;-68
2021/03/06 08:17:39;;;;;;;10.38;5.47;;;;;;;5.32;62.20;101752.89;2757875;85;21196;-66
2021/03/06 08:21:53;;;;;;;5.72;4.67;;;;;;;5.45;60.61;101751.98;2758294;86;21194;-65
2021/03/06 08:26:26;;;;;;;13.85;6.10;;;;;;;5.36;59.92;101748.37;2732643;86;21640;-64
2021/03/06 08:30:30;;;;;;;10.65;5.62;;;;;;;5.44;60.10;101746.30;2752358;85;21189;-64
2021/03/06 08:34:49;;;;;;;7.22;5.45;;;;;;;5.55;59.76;101745.45;2754324;85;21169;-66
2021/03/06 08:38:56;;;;;;;8.23;4.92;;;;;;;5.63;59.75;101741.66;2778893;85;21153;-64
2021/03/06 08:42:59;;;;;;;6.12;4.35;;;;;;;5.60;58.20;101748.37;2775285;84;21206;-63
2021/03/06 08:47:05;;;;;;;7.65;4.80;;;;;;;5.56;57.51;101751.14;2773593;84;21626;-66
2021/03/06 08:51:09;;;;;;;7.28;5.40;;;;;;;5.52;57.33;101754.81;2761769;85;21187;-63
2021/03/06 08:55:19;;;;;;;5.15;3.50;;;;;;;5.52;56.90;101749.98;2751852;85;21180;-66
2021/03/06 08:59:43;;;;;;;5.55;4.83;;;;;;;5.46;56.65;101749.74;2781750;85;21224;-66
2021/03/06 09:03:49;;;;;;;8.50;4.80;;;;;;;5.57;58.03;101752.86;2653567;89;21634;-67
2021/03/06 09:07:56;;;;;;;5.92;4.67;;;;;;;5.70;56.56;101753.25;2667339;89;21215;-65
2021/03/06 09:12:00;;;;;;;4.20;3.70;;;;;;;5.75;56.52;101751.77;2623991;89;21623;-65
2021/03/06 09:16:06;;;;;;;8.70;5.50;;;;;;;5.84;56.41;101748.76;2638280;90;21202;-66
2021/03/06 09:20:11;;;;;;;9.55;5.00;;;;;;;5.95;56.33;101751.45;2623311;90;21202;-67
2021/03/06 09:24:14;;;;;;;11.33;5.92;;;;;;;6.06;55.68;101749.27;2645973;90;21654;-66
2021/03/06 09:28:25;;;;;;;5.25;4.70;;;;;;;6.13;56.65;101747.25;2638159;90;21200;-67
2021/03/06 09:32:33;;;;;;;11.57;5.35;;;;;;;6.19;54.55;101737.78;2645153;89;21206;-68
2021/03/06 09:36:41;;;;;;;9.13;6.20;;;;;;;6.29;55.90;101740.91;2638462;90;23298;-68
2021/03/06 09:40:50;;;;;;;10.63;4.87;;;;;;;6.43;54.77;101741.66;2646210;89;21189;-67
2021/03/06 09:44:55;;;;;;;10.00;6.05;;;;;;;6.51;55.23;101735.58;2658131;88;21177;-67
2021/03/06 09:49:07;;;;;;;9.00;4.58;;;;;;;6.68;55.49;101730.93;2648182;89;21184;-68
2021/03/06 09:53:25;;;;;;;7.55;5.87;;;;;;;6.78;54.49;101729.20;2637614;90;21199;-67
2021/03/06 09:57:29;;;;;;;11.63;5.15;;;;;;;6.80;55.38;101727.34;2637375;90;22276;-68
2021/03/06 10:01:35;;;;;;;8.85;5.75;;;;;;;6.88;53.53;101724.38;2645641;89;21217;-67
2021/03/06 10:05:39;;;;;;;11.90;5.78;;;;;;;6.96;53.50;101726.21;2647510;89;21192;-68
2021/03/06 10:09:44;;;;;;;5.42;4.35;;;;;;;7.06;53.40;101728.86;2657932;88;21204;-66
2021/03/06 10:13:51;;;;;;;7.25;3.75;;;;;;;7.21;52.88;101733.09;2658916;89;21209;-67
2021/03/06 10:17:54;;;;;;;6.22;4.15;;;;;;;7.26;51.94;101717.38;2658696;88;21217;-67
2021/03/06 10:22:09;;;;;;;4.92;3.85;;;;;;;7.40;53.35;101721.20;2658274;89;21169;-66
2021/03/06 10:26:22;;;;;;;12.45;5.45;;;;;;;7.48;52.87;101716.88;2659368;89;21614;-67
2021/03/06 10:30:30;;;;;;;7.95;2.90;;;;;;;7.46;51.50;101711.64;2591660;91;21207;-66
2021/03/06 10:34:35;;;;;;;8.73;3.08;;;;;;;7.45;53.29;101712.56;2604346;90;21659;-67
2021/03/06 10:38:38;;;;;;;5.85;2.77;;;;;;;7.42;51.15;101714.04;2659555;88;21205;-67
2021/03/06 10:42:51;;;;;;;8.85;2.92;;;;;;;7.31;51.63;101711.04;2645946;88;21208;-67
2021/03/06 10:46:59;;;;;;;2.67;2.45;;;;;;;7.20;51.25;101695.16;2658625;88;21201;-66
2021/03/06 10:51:05;;;;;;;6.85;4.50;;;;;;;7.42;52.18;101699.48;2659884;88;21196;-65
2021/03/06 10:55:10;;;;;;;5.85;3.52;;;;;;;7.43;50.81;101692.80;2659202;89;21226;-67
2021/03/06 10:59:14;;;;;;;3.23;2.47;;;;;;;7.48;51.91;101682.00;2648280;89;21659;-65
2021/03/06 11:03:17;;;;;;;4.03;2.65;;;;;;;7.59;51.30;101684.15;2642677;89;21706;-65
2021/03/06 11:07:30;;;;;;;4.83;3.85;;;;;;;7.74;51.34;101679.03;2664930;89;21188;-65
2021/03/06 11:11:34;;;;;;;5.78;4.80;;;;;;;7.88;51.28;101663.34;2667432;89;21200;-64
2021/03/06 11:15:51;;;;;;;9.05;4.92;;;;;;;7.88;49.67;101658.53;2668223;89;21274;-63
2021/03/06 11:19:54;;;;;;;;;;;;;;;7.85;49.30;101656.87;2670530;88;21152;-65
2021/03/06 11:23:57;;;;;;;5.05;3.20;;;;;;;7.98;51.74;101657.13;2667677;89;20184;-65
2021/03/06 11:28:06;;;;;;;4.62;3.67;;;;;;;7.94;50.52;101654.24;2667714;88;21204;-65
2021/03/06 11:32:08;;;;;;;17.55;11.00;;;;;;;8.01;50.06;101643.73;2666434;89;21204;-65
2021/03/06 11:36:12;;;;;;;4.70;3.42;;;;;;;8.11;49.81;101645.45;2666214;89;21702;-64
2021/03/06 11:40:18;;;;;;;4.05;3.37;;;;;;;7.99;50.44;101637.64;2668032;89;21217;-65
2021/03/06 11:44:21;;;;;;;4.72;2.77;;;;;;;7.95;48.84;101638.25;2668433;89;21136;-65
2021/03/06 11:48:24;;;;;;;6.30;3.90;;;;;;;7.87;48.77;101615.27;2668307;89;21225;-64
2021/03/06 11:52:28;;;;;;;3.40;3.10;;;;;;;7.81;49.64;101606.30;2668241;89;21626;-64
2021/03/06 11:56:32;;;;;;;5.33;2.70;;;;;;;7.84;48.94;101600.37;2668507;89;21173;-65
2021/03/06 12:00:36;;;;;;;5.17;2.60;;;;;;;7.88;49.40;101614.33;2668227;87;21184;-63
2021/03/06 12:04:40;;;;;;;5.47;3.22;;;;;;;7.80;47.47;101607.23;2659643;89;21205;-64
2021/03/06 12:08:43;;;;;;;3.67;2.95;;;;;;;7.71;47.91;101600.60;2659464;89;21155;-64
2021/03/06 12:12:46;;;;;;;5.55;3.50;;;;;;;7.83;48.61;101593.36;2659618;89;21209;-65
2021/03/06 12:16:49;;;;;;;4.30;2.80;;;;;;;7.92;49.42;101587.23;2659397;89;21201;-65
2021/03/06 12:20:52;;;;;;;5.08;2.75;;;;;;;8.03;49.51;101576.09;2659652;89;21185;-65
2021/03/06 12:24:56;;;;;;;3.55;1.98;;;;;;;8.23;49.08;101593.16;2659583;89;21145;-64
2021/03/06 12:28:59;;;;;;;3.30;2.30;;;;;;;8.21;48.06;101572.95;2660032;89;21197;-65
2021/03/06 12:33:01;;;;;;;2.50;2.30;;;;;;;8.11;48.17;101569.47;2659528;89;21197;-65
2021/03/06 12:37:06;;;;;;;4.12;2.27;;;;;;;8.09;48.60;101565.16;2659811;89;21197;-65
2021/03/06 12:41:08;;;;;;;3.90;2.25;;;;;;;7.98;48.37;101569.69;2660093;89;21209;-65
2021/03/06 12:45:13;;;;;;;4.08;2.40;;;;;;;8.03;49.40;101560.19;2659921;89;21208;-64
2021/03/06 12:49:18;;;;;;;3.95;1.95;;;;;;;8.11;48.85;101570.79;2659457;89;21196;-65
2021/03/06 12:53:22;;;;;;;2.95;1.30;;;;;;;8.11;46.48;101557.53;2672281;89;21184;-64
2021/03/06 12:57:26;;;;;;;2.47;1.57;;;;;;;7.96;45.46;101554.34;2673821;89;21213;-61
2021/03/06 13:01:29;;;;;;;3.52;2.30;;;;;;;8.03;47.03;101535.86;2673976;88;21192;-62
2021/03/06 13:05:33;;;;;;;2.80;2.10;;;;;;;8.13;45.29;101541.08;2667966;88;21189;-61
2021/03/06 13:09:37;;;;;;;4.60;2.90;;;;;;;8.24;47.66;101536.55;2659578;89;21620;-61
2021/03/06 13:13:41;;;;;;;5.85;2.25;;;;;;;8.30;47.53;101539.36;2659310;89;22158;-63
2021/03/06 13:17:44;;;;;;;2.58;2.20;;;;;;;8.47;46.92;101540.27;2659331;89;21169;-60
2021/03/06 13:21:49;;;;;;;2.92;2.72;;;;;;;8.55;47.23;101534.98;2659343;89;21189;-60
2021/03/06 13:25:52;;;;;;;3.77;2.67;;;;;;;8.58;47.63;101528.63;2659302;89;21164;-62
2021/03/06 13:29:55;;;;;;;3.80;3.15;;;;;;;8.58;47.31;101523.33;2640175;89;21225;-61
2021/03/06 13:33:58;;;;;;;6.05;2.92;;;;;;;8.60;47.42;101522.77;2637539;90;21218;-62
2021/03/06 13:38:01;;;;;;;3.02;2.55;;;;;;;8.58;47.53;101529.96;2633028;89;21639;-63
2021/03/06 13:42:05;;;;;;;2.42;2.20;;;;;;;8.50;47.04;101525.55;2633862;90;21198;-61
2021/03/06 13:46:08;;;;;;;3.37;3.08;;;;;;;8.44;47.92;101509.45;2637555;90;21152;-60
2021/03/06 13:50:13;;;;;;;6.05;2.80;;;;;;;8.40;47.72;101519.36;2637147;90;21160;-60
2021/03/06 13:54:17;;;;;;;3.00;2.67;;;;;;;8.40;48.66;101515.38;2635397;90;21205;-61
2021/03/06 13:58:20;;;;;;;5.05;3.05;;;;;;;8.36;46.95;101507.21;2632321;90;21166;-61
2021/03/06 14:02:23;;;;;;;6.20;3.55;;;;;;;8.43;47.27;101515.70;2637959;90;21162;-62
2021/03/06 14:06:26;;;;;;;4.30;2.70;;;;;;;8.56;48.87;101506.64;2637762;90;21178;-62
2021/03/06 14:10:29;;;;;;;2.75;2.55;;;;;;;8.65;47.67;101492.91;2637679;90;21170;-60
2021/03/06 14:14:32;;;;;;;11.78;4.08;;;;;;;8.58;46.67;101491.50;2637900;90;21468;-61
2021/03/06 14:18:36;;;;;;;4.00;3.30;;;;;;;8.53;47.18;101498.86;2637685;90;21209;-61
2021/03/06 14:22:39;;;;;;;5.03;3.90;;;;;;;8.49;47.41;101499.45;2638059;90;21202;-61
2021/03/06 14:26:42;;;;;;;5.10;2.80;;;;;;;8.40;48.01;101487.54;2637553;90;21225;-62
2021/03/06 14:30:46;;;;;;;3.85;2.72;;;;;;;8.32;46.94;101473.85;2637976;90;21230;-63
2021/03/06 14:34:51;;;;;;;6.67;3.02;;;;;;;8.26;48.22;101486.12;2637725;90;21227;-61
2021/03/06 14:38:53;;;;;;;3.83;3.17;;;;;;;8.32;47.53;101489.76;2637429;90;21213;-59
2021/03/06 14:42:58;;;;;;;8.68;2.75;;;;;;;8.27;48.73;101475.41;2636821;89;21684;-60
2021/03/06 14:47:02;;;;;;;6.33;3.67;;;;;;;8.25;47.28;101461.84;2638313;90;21238;-60
2021/03/06 14:51:06;;;;;;;3.60;2.62;;;;;;;8.21;47.83;101469.58;2637771;90;21666;-61
2021/03/06 14:55:12;;;;;;;3.98;3.58;;;;;;;8.24;48.68;101465.44;2638214;90;21184;-61
2021/03/06 14:59:14;;;;;;;2.60;2.40;;;;;;;8.19;47.36;101460.85;2638002;90;21200;-61
2021/03/06 15:03:17;;;;;;;8.35;3.17;;;;;;;8.20;48.40;101444.01;2629464;89;21192;-60
2021/03/06 15:07:21;;;;;;;5.40;3.20;;;;;;;8.13;48.97;101452.30;2605886;90;21188;-60
2021/03/06 15:11:24;;;;;;;4.58;3.45;;;;;;;8.08;48.33;101444.20;2625262;90;21169;-61
2021/03/06 15:15:26;;;;;;;5.40;3.40;;;;;;;8.05;48.03;101440.39;2625363;90;21196;-60
2021/03/06 15:19:31;;;;;;;3.35;2.60;;;;;;;7.94;47.70;101436.98;2625211;90;21627;-60
2021/03/06 15:23:35;;;;;;;5.17;3.27;;;;;;;7.91;48.55;101443.77;2625599;90;21585;-59
2021/03/06 15:27:38;;;;;;;4.03;3.05;;;;;;;7.84;47.38;101437.44;2626136;90;21217;-60
2021/03/06 15:31:40;;;;;;;4.97;3.52;;;;;;;7.90;48.46;101439.41;2626412;90;21125;-60
2021/03/06 15:35:44;;;;;;;12.90;4.33;;;;;;;7.91;48.45;101441.12;2622985;90;21226;-62
2021/03/06 15:39:47;;;;;;;7.70;4.17;;;;;;;7.83;48.53;101435.73;2623162;90;21170;-62
2021/03/06 15:43:50;;;;;;;4.60;4.12;;;;;;;7.76;48.70;101438.77;2622749;90;21241;-60
2021/03/06 15:47:53;;;;;;;6.03;4.58;;;;;;;7.71;49.34;101453.12;2622931;90;21190;-60
2021/03/06 15:51:56;;;;;;;5.75;4.25;;;;;;;7.56;48.90;101437.55;2622716;90;21693;-59
2021/03/06 15:56:00;;;;;;;7.15;5.55;;;;;;;7.48;49.81;101435.77;2622695;90;21221;-60
2021/03/06 16:00:10;;;;;;;3.52;3.25;;;;;;;7.39;50.07;101436.22;2622806;90;21230;-60
2021/03/06 16:04:14;;;;;;;5.47;3.37;;;;;;;7.33;50.85;101441.83;2634847;89;21176;-61
2021/03/06 16:08:18;;;;;;;5.17;3.92;;;;;;;7.22;50.83;101443.20;2645095;90;21180;-59
2021/03/06 16:12:21;;;;;;;5.45;4.35;;;;;;;7.15;51.02;101441.80;2645081;89;21236;-59
2021/03/06 16:16:24;;;;;;;7.90;4.20;;;;;;;7.07;51.35;101436.01;2645160;89;21164;-59
2021/03/06 16:20:28;;;;;;;7.80;4.60;;;;;;;6.94;51.87;101429.14;2645418;90;21192;-59
2021/03/06 16:24:31;;;;;;;5.80;3.87;;;;;;;6.75;52.43;101433.14;2645232;89;21666;-60
2021/03/06 16:28:34;;;;;;;5.17;4.67;;;;;;;6.63;52.74;101440.71;2645469;89;21192;-61
2021/03/06 16:32:37;;;;;;;6.65;5.37;;;;;;;6.46;53.24;101437.54;2645556;89;21202;-60
2021/03/06 16:36:41;;;;;;;10.82;7.30;;;;;;;6.27;54.11;101446.75;2645133;89;21225;-61
2021/03/06 16:40:49;;;;;;;13.78;8.20;;;;;;;6.04;55.40;101457.89;2643921;89;21204;-60
2021/03/06 16:44:52;;;;;;;12.53;9.25;;;;;;;5.82;56.12;101465.40;2645031;90;21218;-61
2021/03/06 16:48:56;;;;;;;13.48;7.40;;;;;;;5.56;57.56;101460.78;2604535;91;21641;-60
2021/03/06 16:52:59;;;;;;;11.18;7.90;;;;;;;5.35;57.56;101460.35;2634359;89;21197;-61
2021/03/06 16:57:03;;;;;;;13.22;8.38;;;;;;;5.15;58.08;101469.46;2644909;90;21259;-60
2021/03/06 17:01:06;;;;;;;16.42;8.55;;;;;;;5.00;58.68;101456.87;2644865;90;21660;-60
2021/03/06 17:05:11;;;;;;;11.10;9.08;;;;;;;4.90;59.21;101452.91;2639004;90;21206;-59
2021/03/06 17:09:14;;;;;;;10.13;8.48;;;;;;;4.83;59.17;101449.64;2637510;90;21246;-59
2021/03/06 17:13:17;;;;;;;15.08;9.08;;;;;;;4.79;59.23;101458.59;2637278;90;21201;-61
2021/03/06 17:17:20;;;;;;;10.30;8.43;;;;;;;4.70;59.79;101467.72;2637444;90;21183;-59
2021/03/06 17:21:23;;;;;;;15.48;9.40;;;;;;;4.61;60.21;101472.88;2637484;90;21246;-59
2021/03/06 17:25:28;;;;;;;12.80;8.15;;;;;;;4.54;60.71;101471.41;2638910;89;21184;-61
2021/03/06 17:29:32;;;;;;;10.05;8.23;;;;;;;4.55;61.13;101475.75;2641866;89;21191;-60
2021/03/06 17:33:35;;;;;;;10.98;8.83;;;;;;;4.56;61.33;101476.16;2660271;89;21224;-60
2021/03/06 17:37:39;;;;;;;11.57;9.20;;;;;;;4.59;62.06;101478.67;2656959;89;21228;-61
2021/03/06 17:41:43;;;;;;;12.03;9.75;;;;;;;4.64;62.21;101467.48;2649571;89;21221;-61
2021/03/06 17:45:47;;;;;;;12.50;10.38;;;;;;;4.70;62.17;101465.92;2655217;88;21168;-59
2021/03/06 17:49:50;;;;;;;12.45;8.15;;;;;;;4.69;61.77;101472.11;2602769;90;21216;-61
2021/03/06 17:53:53;;;;;;;15.10;10.40;;;;;;;4.75;62.15;101467.55;2658427;88;21199;-61
2021/03/06 17:57:56;;;;;;;13.18;7.78;;;;;;;4.80;61.91;101465.11;2648028;88;21612;-59
2021/03/06 18:01:59;;;;;;;11.20;8.45;;;;;;;4.91;61.08;101462.53;2659187;89;21647;-61
2021/03/06 18:06:03;;;;;;;8.25;7.25;;;;;;;5.02;61.17;101453.75;2660548;89;21694;-61
2021/03/06 18:10:08;;;;;;;12.95;8.05;;;;;;;5.12;61.12;101446.33;2631258;90;21193;-61
2021/03/06 18:14:12;;;;;;;12.75;8.68;;;;;;;5.13;61.36;101446.72;2629450;90;21131;-60
2021/03/06 18:18:15;;;;;;;10.93;9.30;;;;;;;5.08;61.15;101439.43;2642313;90;21181;-61
2021/03/06 18:22:19;;;;;;;18.55;10.58;;;;;;;5.01;61.05;101433.54;2645013;89;21685;-60
2021/03/06 18:26:22;;;;;;;13.30;10.90;;;;;;;4.90;60.64;101432.66;2652412;89;21201;-61
2021/03/06 18:30:27;;;;;;;13.13;11.03;;;;;;;4.77;60.66;101431.44;2652686;89;21222;-61
2021/03/06 18:34:31;;;;;;;14.00;9.95;;;;;;;4.67;60.77;101438.84;2652764;89;21478;-61
2021/03/06 18:38:35;;;;;;;18.85;10.45;;;;;;;4.52;61.09;101435.00;2650344;89;21165;-60
2021/03/06 18:42:39;;;;;;;23.67;11.83;;;;;;;4.40;61.47;101431.92;2655913;89;21674;-62
2021/03/06 18:46:42;;;;;;;16.60;11.05;;;;;;;4.30;61.76;101422.64;2669739;89;21142;-59
2021/03/06 18:50:45;;;;;;;19.87;11.40;;;;;;;4.19;62.00;101418.24;2652725;89;21145;-60
2021/03/06 18:54:48;;;;;;;13.68;9.53;;;;;;;4.07;62.38;101418.23;2650211;89;21197;-60
2021/03/06 18:58:51;;;;;;;15.15;9.98;;;;;;;3.94;62.79;101417.83;2652641;89;21208;-61
2021/03/06 19:02:55;;;;;;;11.78;8.30;;;;;;;3.84;63.26;101423.87;2650488;89;21245;-61
2021/03/06 19:07:03;;;;;;;12.88;8.63;;;;;;;3.77;63.63;101432.88;2639862;89;21222;-60
2021/03/06 19:11:06;;;;;;;14.05;8.38;;;;;;;3.73;63.88;101436.06;2653794;89;21189;-60